sensor_id;sensor_type;location;lat;lon;timestamp;P1;durP1;ratioP1;P2;durP2;ratioP2
60973;SDS011;46846;51.528;5.076;2023-09-19T00:01:06;350.95;;;333.00;;
60973;SDS011;46846;51.528;5.076;2023-09-19T00:03:36;339.27;;;322.15;;
60973;SDS011;46846;51.528;5.076;2023-09-19T00:06:02;338.20;;;321.10;;
60973;SDS011;46846;51.528;5.076;2023-09-19T00:08:29;332.13;;;315.35;;
60973;SDS011;46846;51.528;5.076;2023-09-19T00:10:56;349.88;;;332.27;;
60973;SDS011;46846;51.528;5.076;2023-09-19T00:13:30;334.25;;;316.75;;
60973;SDS011;46846;51.528;5.076;2023-09-19T00:16:01;332.40;;;314.05;;
60973;SDS011;46846;51.528;5.076;2023-09-19T00:18:33;344.95;;;327.10;;
60973;SDS011;46846;51.528;5.076;2023-09-19T00:20:59;332.58;;;315.70;;
60973;SDS011;46846;51.528;5.076;2023-09-19T00:23:25;342.83;;;325.55;;
60973;SDS011;46846;51.528;5.076;2023-09-19T00:25:51;344.92;;;327.02;;
60973;SDS011;46846;51.528;5.076;2023-09-19T00:28:17;325.25;;;308.42;;
60973;SDS011;46846;51.528;5.076;2023-09-19T00:30:45;338.27;;;321.23;;
60973;SDS011;46846;51.528;5.076;2023-09-19T00:33:11;334.38;;;316.90;;
60973;SDS011;46846;51.528;5.076;2023-09-19T00:35:46;339.77;;;322.35;;
60973;SDS011;46846;51.528;5.076;2023-09-19T00:38:15;349.67;;;331.70;;
60973;SDS011;46846;51.528;5.076;2023-09-19T00:40:45;337.60;;;319.63;;
60973;SDS011;46846;51.528;5.076;2023-09-19T00:43:12;347.33;;;329.92;;
60973;SDS011;46846;51.528;5.076;2023-09-19T00:45:37;324.83;;;307.52;;
60973;SDS011;46846;51.528;5.076;2023-09-19T00:48:07;329.48;;;312.75;;
60973;SDS011;46846;51.528;5.076;2023-09-19T00:50:34;335.85;;;318.42;;
60973;SDS011;46846;51.528;5.076;2023-09-19T00:53:00;351.60;;;333.42;;
60973;SDS011;46846;51.528;5.076;2023-09-19T00:55:27;329.15;;;311.90;;
60973;SDS011;46846;51.528;5.076;2023-09-19T00:57:55;342.15;;;324.23;;
60973;SDS011;46846;51.528;5.076;2023-09-19T01:00:22;339.60;;;322.02;;
60973;SDS011;46846;51.528;5.076;2023-09-19T01:02:48;348.30;;;330.77;;
60973;SDS011;46846;51.528;5.076;2023-09-19T01:05:14;340.73;;;322.67;;
60973;SDS011;46846;51.528;5.076;2023-09-19T01:07:40;322.92;;;306.65;;
60973;SDS011;46846;51.528;5.076;2023-09-19T01:10:06;342.95;;;324.85;;
60973;SDS011;46846;51.528;5.076;2023-09-19T01:12:47;327.98;;;311.52;;
60973;SDS011;46846;51.528;5.076;2023-09-19T01:28:53;325.85;;;308.77;;
60973;SDS011;46846;51.528;5.076;2023-09-19T01:31:23;324.00;;;306.92;;
60973;SDS011;46846;51.528;5.076;2023-09-19T01:33:56;331.75;;;315.00;;
60973;SDS011;46846;51.528;5.076;2023-09-19T01:36:28;324.92;;;308.10;;
60973;SDS011;46846;51.528;5.076;2023-09-19T01:38:54;339.27;;;321.65;;
60973;SDS011;46846;51.528;5.076;2023-09-19T01:41:26;318.20;;;301.77;;
60973;SDS011;46846;51.528;5.076;2023-09-19T01:44:03;315.80;;;299.45;;
60973;SDS011;46846;51.528;5.076;2023-09-19T01:46:34;333.58;;;316.45;;
60973;SDS011;46846;51.528;5.076;2023-09-19T01:49:23;322.40;;;306.17;;
60973;SDS011;46846;51.528;5.076;2023-09-19T01:54:52;321.58;;;305.27;;
60973;SDS011;46846;51.528;5.076;2023-09-19T01:57:35;320.38;;;303.42;;
60973;SDS011;46846;51.528;5.076;2023-09-19T02:00:09;320.02;;;303.25;;
60973;SDS011;46846;51.528;5.076;2023-09-19T02:02:40;316.65;;;300.35;;
60973;SDS011;46846;51.528;5.076;2023-09-19T02:05:10;339.20;;;321.95;;
60973;SDS011;46846;51.528;5.076;2023-09-19T02:07:37;328.40;;;311.65;;
60973;SDS011;46846;51.528;5.076;2023-09-19T02:10:06;333.73;;;316.38;;
60973;SDS011;46846;51.528;5.076;2023-09-19T02:12:35;330.75;;;313.63;;
60973;SDS011;46846;51.528;5.076;2023-09-19T02:15:00;324.48;;;307.77;;
60973;SDS011;46846;51.528;5.076;2023-09-19T02:17:26;326.88;;;310.30;;
60973;SDS011;46846;51.528;5.076;2023-09-19T02:19:54;322.30;;;305.45;;
60973;SDS011;46846;51.528;5.076;2023-09-19T02:22:23;328.73;;;311.58;;
60973;SDS011;46846;51.528;5.076;2023-09-19T02:24:49;328.63;;;311.77;;
60973;SDS011;46846;51.528;5.076;2023-09-19T02:27:16;317.48;;;301.05;;
60973;SDS011;46846;51.528;5.076;2023-09-19T02:29:42;330.27;;;312.98;;
60973;SDS011;46846;51.528;5.076;2023-09-19T02:32:08;328.77;;;312.33;;
60973;SDS011;46846;51.528;5.076;2023-09-19T02:34:36;318.30;;;302.23;;
60973;SDS011;46846;51.528;5.076;2023-09-19T02:37:04;312.48;;;296.38;;
60973;SDS011;46846;51.528;5.076;2023-09-19T02:39:33;328.02;;;311.33;;
60973;SDS011;46846;51.528;5.076;2023-09-19T02:42:00;318.10;;;301.92;;
60973;SDS011;46846;51.528;5.076;2023-09-19T02:44:25;326.38;;;309.90;;
60973;SDS011;46846;51.528;5.076;2023-09-19T02:46:51;321.95;;;305.27;;
60973;SDS011;46846;51.528;5.076;2023-09-19T02:49:16;313.38;;;297.15;;
60973;SDS011;46846;51.528;5.076;2023-09-19T02:51:43;319.42;;;303.08;;
60973;SDS011;46846;51.528;5.076;2023-09-19T02:54:09;332.38;;;315.35;;
60973;SDS011;46846;51.528;5.076;2023-09-19T02:56:35;332.17;;;315.33;;
60973;SDS011;46846;51.528;5.076;2023-09-19T02:59:00;311.52;;;295.63;;
60973;SDS011;46846;51.528;5.076;2023-09-19T03:01:26;325.50;;;308.95;;
60973;SDS011;46846;51.528;5.076;2023-09-19T03:03:53;330.80;;;313.98;;
60973;SDS011;46846;51.528;5.076;2023-09-19T03:06:19;324.08;;;307.48;;
60973;SDS011;46846;51.528;5.076;2023-09-19T03:08:45;324.63;;;308.48;;
60973;SDS011;46846;51.528;5.076;2023-09-19T03:11:11;303.75;;;287.80;;
60973;SDS011;46846;51.528;5.076;2023-09-19T03:13:39;314.05;;;298.17;;
60973;SDS011;46846;51.528;5.076;2023-09-19T03:16:05;325.30;;;309.05;;
60973;SDS011;46846;51.528;5.076;2023-09-19T03:18:31;325.35;;;308.55;;
60973;SDS011;46846;51.528;5.076;2023-09-19T03:20:57;308.60;;;292.83;;
60973;SDS011;46846;51.528;5.076;2023-09-19T03:23:25;335.77;;;318.67;;
60973;SDS011;46846;51.528;5.076;2023-09-19T03:25:51;305.25;;;289.90;;
60973;SDS011;46846;51.528;5.076;2023-09-19T03:28:17;323.45;;;307.33;;
60973;SDS011;46846;51.528;5.076;2023-09-19T03:30:43;321.02;;;304.75;;
60973;SDS011;46846;51.528;5.076;2023-09-19T03:33:09;307.63;;;291.35;;
60973;SDS011;46846;51.528;5.076;2023-09-19T03:35:37;307.30;;;291.75;;
60973;SDS011;46846;51.528;5.076;2023-09-19T03:38:03;318.92;;;302.48;;
60973;SDS011;46846;51.528;5.076;2023-09-19T03:40:29;308.95;;;293.40;;
60973;SDS011;46846;51.528;5.076;2023-09-19T03:42:55;311.67;;;295.98;;
60973;SDS011;46846;51.528;5.076;2023-09-19T03:45:20;305.38;;;290.08;;
60973;SDS011;46846;51.528;5.076;2023-09-19T03:47:46;316.77;;;300.92;;
60973;SDS011;46846;51.528;5.076;2023-09-19T03:50:14;305.77;;;289.75;;
60973;SDS011;46846;51.528;5.076;2023-09-19T03:52:42;308.58;;;292.92;;
60973;SDS011;46846;51.528;5.076;2023-09-19T03:55:11;309.10;;;293.35;;
60973;SDS011;46846;51.528;5.076;2023-09-19T03:57:37;316.33;;;300.42;;
60973;SDS011;46846;51.528;5.076;2023-09-19T04:00:03;309.90;;;294.13;;
60973;SDS011;46846;51.528;5.076;2023-09-19T04:02:37;311.98;;;295.98;;
60973;SDS011;46846;51.528;5.076;2023-09-19T04:05:03;302.98;;;287.63;;
60973;SDS011;46846;51.528;5.076;2023-09-19T04:07:29;301.67;;;286.20;;
60973;SDS011;46846;51.528;5.076;2023-09-19T04:09:55;313.98;;;297.35;;
60973;SDS011;46846;51.528;5.076;2023-09-19T04:12:20;306.58;;;291.02;;
60973;SDS011;46846;51.528;5.076;2023-09-19T04:14:46;307.58;;;291.55;;
60973;SDS011;46846;51.528;5.076;2023-09-19T04:17:11;302.65;;;286.90;;
60973;SDS011;46846;51.528;5.076;2023-09-19T04:19:37;297.58;;;282.27;;
60973;SDS011;46846;51.528;5.076;2023-09-19T04:22:02;317.73;;;301.80;;
60973;SDS011;46846;51.528;5.076;2023-09-19T04:24:29;303.08;;;287.15;;
60973;SDS011;46846;51.528;5.076;2023-09-19T04:26:54;315.52;;;299.05;;
60973;SDS011;46846;51.528;5.076;2023-09-19T04:29:19;303.25;;;287.77;;
60973;SDS011;46846;51.528;5.076;2023-09-19T04:31:45;302.58;;;286.73;;
60973;SDS011;46846;51.528;5.076;2023-09-19T04:34:11;314.10;;;298.45;;
60973;SDS011;46846;51.528;5.076;2023-09-19T04:36:42;315.00;;;298.77;;
60973;SDS011;46846;51.528;5.076;2023-09-19T04:39:08;301.20;;;285.30;;
60973;SDS011;46846;51.528;5.076;2023-09-19T04:41:35;298.85;;;283.73;;
60973;SDS011;46846;51.528;5.076;2023-09-19T04:44:04;316.52;;;299.98;;
60973;SDS011;46846;51.528;5.076;2023-09-19T04:46:30;298.58;;;283.65;;
60973;SDS011;46846;51.528;5.076;2023-09-19T04:48:55;297.42;;;281.65;;
60973;SDS011;46846;51.528;5.076;2023-09-19T04:51:20;303.52;;;287.92;;
60973;SDS011;46846;51.528;5.076;2023-09-19T04:53:46;307.48;;;291.63;;
60973;SDS011;46846;51.528;5.076;2023-09-19T04:56:12;302.20;;;286.58;;
60973;SDS011;46846;51.528;5.076;2023-09-19T04:58:38;316.45;;;299.92;;
60973;SDS011;46846;51.528;5.076;2023-09-19T05:01:03;305.35;;;289.60;;
60973;SDS011;46846;51.528;5.076;2023-09-19T05:03:29;295.20;;;279.38;;
60973;SDS011;46846;51.528;5.076;2023-09-19T05:05:56;295.95;;;280.73;;
60973;SDS011;46846;51.528;5.076;2023-09-19T05:08:21;303.17;;;287.98;;
60973;SDS011;46846;51.528;5.076;2023-09-19T05:10:47;317.35;;;301.05;;
60973;SDS011;46846;51.528;5.076;2023-09-19T05:13:13;284.33;;;269.83;;
60973;SDS011;46846;51.528;5.076;2023-09-19T05:15:39;298.45;;;283.02;;
60973;SDS011;46846;51.528;5.076;2023-09-19T05:18:05;302.63;;;287.00;;
60973;SDS011;46846;51.528;5.076;2023-09-19T05:20:31;310.73;;;294.98;;
60973;SDS011;46846;51.528;5.076;2023-09-19T05:25:33;296.67;;;281.35;;
60973;SDS011;46846;51.528;5.076;2023-09-19T05:28:02;301.55;;;286.42;;
60973;SDS011;46846;51.528;5.076;2023-09-19T05:30:30;299.52;;;283.92;;
60973;SDS011;46846;51.528;5.076;2023-09-19T05:32:56;292.05;;;277.05;;
60973;SDS011;46846;51.528;5.076;2023-09-19T05:35:23;309.40;;;293.95;;
60973;SDS011;46846;51.528;5.076;2023-09-19T05:37:53;299.13;;;283.88;;
60973;SDS011;46846;51.528;5.076;2023-09-19T05:45:31;297.27;;;282.33;;
60973;SDS011;46846;51.528;5.076;2023-09-19T05:47:56;302.05;;;286.73;;
60973;SDS011;46846;51.528;5.076;2023-09-19T05:50:32;310.33;;;293.77;;
60973;SDS011;46846;51.528;5.076;2023-09-19T05:52:59;291.60;;;276.60;;
60973;SDS011;46846;51.528;5.076;2023-09-19T05:55:24;291.52;;;276.40;;
60973;SDS011;46846;51.528;5.076;2023-09-19T05:57:53;299.90;;;284.60;;
60973;SDS011;46846;51.528;5.076;2023-09-19T06:00:19;292.10;;;276.95;;
60973;SDS011;46846;51.528;5.076;2023-09-19T06:02:52;303.60;;;287.90;;
60973;SDS011;46846;51.528;5.076;2023-09-19T06:05:23;295.02;;;279.80;;
60973;SDS011;46846;51.528;5.076;2023-09-19T06:07:49;293.20;;;277.50;;
60973;SDS011;46846;51.528;5.076;2023-09-19T06:10:15;298.70;;;283.45;;
60973;SDS011;46846;51.528;5.076;2023-09-19T06:12:42;293.65;;;278.05;;
60973;SDS011;46846;51.528;5.076;2023-09-19T06:15:11;304.63;;;289.17;;
60973;SDS011;46846;51.528;5.076;2023-09-19T06:17:53;304.67;;;289.45;;
60973;SDS011;46846;51.528;5.076;2023-09-19T06:20:20;282.52;;;267.83;;
60973;SDS011;46846;51.528;5.076;2023-09-19T06:22:47;291.80;;;276.30;;
60973;SDS011;46846;51.528;5.076;2023-09-19T06:25:13;298.13;;;282.70;;
60973;SDS011;46846;51.528;5.076;2023-09-19T06:27:49;286.15;;;271.65;;
60973;SDS011;46846;51.528;5.076;2023-09-19T06:30:17;287.85;;;273.15;;
60973;SDS011;46846;51.528;5.076;2023-09-19T06:32:43;295.90;;;280.15;;
60973;SDS011;46846;51.528;5.076;2023-09-19T06:35:12;303.33;;;287.80;;
60973;SDS011;46846;51.528;5.076;2023-09-19T06:37:39;292.75;;;277.55;;
60973;SDS011;46846;51.528;5.076;2023-09-19T06:42:46;300.83;;;284.30;;
60973;SDS011;46846;51.528;5.076;2023-09-19T06:45:15;310.33;;;294.33;;
60973;SDS011;46846;51.528;5.076;2023-09-19T06:47:47;297.52;;;281.17;;
60973;SDS011;46846;51.528;5.076;2023-09-19T06:50:20;283.83;;;268.45;;
60973;SDS011;46846;51.528;5.076;2023-09-19T06:52:50;301.10;;;285.75;;
60973;SDS011;46846;51.528;5.076;2023-09-19T06:55:17;288.02;;;272.92;;
60973;SDS011;46846;51.528;5.076;2023-09-19T06:57:45;293.45;;;277.65;;
60973;SDS011;46846;51.528;5.076;2023-09-19T07:00:13;290.25;;;275.67;;
60973;SDS011;46846;51.528;5.076;2023-09-19T07:03:00;289.95;;;274.98;;
60973;SDS011;46846;51.528;5.076;2023-09-19T07:05:28;292.95;;;277.52;;
60973;SDS011;46846;51.528;5.076;2023-09-19T07:07:56;294.88;;;280.17;;
60973;SDS011;46846;51.528;5.076;2023-09-19T07:10:24;301.08;;;285.35;;
60973;SDS011;46846;51.528;5.076;2023-09-19T07:12:58;306.23;;;289.75;;
60973;SDS011;46846;51.528;5.076;2023-09-19T07:17:54;292.70;;;276.98;;
60973;SDS011;46846;51.528;5.076;2023-09-19T07:20:21;276.52;;;262.27;;
60973;SDS011;46846;51.528;5.076;2023-09-19T07:22:48;285.60;;;270.90;;
60973;SDS011;46846;51.528;5.076;2023-09-19T07:25:15;293.65;;;278.48;;
60973;SDS011;46846;51.528;5.076;2023-09-19T07:27:41;287.50;;;272.60;;
60973;SDS011;46846;51.528;5.076;2023-09-19T07:30:07;286.35;;;271.83;;
60973;SDS011;46846;51.528;5.076;2023-09-19T07:32:34;286.40;;;271.33;;
60973;SDS011;46846;51.528;5.076;2023-09-19T07:35:01;305.08;;;289.45;;
60973;SDS011;46846;51.528;5.076;2023-09-19T07:37:31;298.25;;;282.08;;
60973;SDS011;46846;51.528;5.076;2023-09-19T07:40:01;279.48;;;264.00;;
60973;SDS011;46846;51.528;5.076;2023-09-19T07:42:34;284.95;;;270.20;;
60973;SDS011;46846;51.528;5.076;2023-09-19T07:45:02;305.00;;;289.10;;
60973;SDS011;46846;51.528;5.076;2023-09-19T07:47:28;300.95;;;285.30;;
60973;SDS011;46846;51.528;5.076;2023-09-19T07:49:55;292.38;;;277.23;;
60973;SDS011;46846;51.528;5.076;2023-09-19T07:52:20;283.02;;;268.27;;
60973;SDS011;46846;51.528;5.076;2023-09-19T07:54:47;292.48;;;277.58;;
60973;SDS011;46846;51.528;5.076;2023-09-19T07:57:14;302.98;;;286.33;;
60973;SDS011;46846;51.528;5.076;2023-09-19T07:59:40;287.75;;;272.20;;
60973;SDS011;46846;51.528;5.076;2023-09-19T08:02:07;291.90;;;276.83;;
60973;SDS011;46846;51.528;5.076;2023-09-19T08:04:34;283.77;;;267.63;;
60973;SDS011;46846;51.528;5.076;2023-09-19T08:07:00;298.27;;;282.67;;
60973;SDS011;46846;51.528;5.076;2023-09-19T08:09:28;302.70;;;286.35;;
60973;SDS011;46846;51.528;5.076;2023-09-19T08:11:58;298.95;;;283.42;;
60973;SDS011;46846;51.528;5.076;2023-09-19T08:14:23;301.20;;;285.70;;
60973;SDS011;46846;51.528;5.076;2023-09-19T08:16:50;288.08;;;273.30;;
60973;SDS011;46846;51.528;5.076;2023-09-19T08:19:16;296.67;;;281.40;;
60973;SDS011;46846;51.528;5.076;2023-09-19T08:21:41;297.48;;;281.83;;
60973;SDS011;46846;51.528;5.076;2023-09-19T08:24:10;279.15;;;264.05;;
60973;SDS011;46846;51.528;5.076;2023-09-19T08:26:36;293.50;;;278.58;;
60973;SDS011;46846;51.528;5.076;2023-09-19T08:29:02;298.02;;;281.85;;
60973;SDS011;46846;51.528;5.076;2023-09-19T08:31:29;288.23;;;272.50;;
60973;SDS011;46846;51.528;5.076;2023-09-19T08:33:55;281.20;;;266.05;;
60973;SDS011;46846;51.528;5.076;2023-09-19T08:36:21;287.63;;;272.38;;
60973;SDS011;46846;51.528;5.076;2023-09-19T08:38:46;290.92;;;276.17;;
60973;SDS011;46846;51.528;5.076;2023-09-19T08:41:11;281.42;;;266.95;;
60973;SDS011;46846;51.528;5.076;2023-09-19T08:43:37;297.40;;;280.48;;
60973;SDS011;46846;51.528;5.076;2023-09-19T08:46:06;287.45;;;272.35;;
60973;SDS011;46846;51.528;5.076;2023-09-19T08:48:39;278.55;;;264.38;;
60973;SDS011;46846;51.528;5.076;2023-09-19T08:51:10;292.58;;;277.50;;
60973;SDS011;46846;51.528;5.076;2023-09-19T08:53:42;284.45;;;269.98;;
60973;SDS011;46846;51.528;5.076;2023-09-19T08:56:18;291.35;;;275.83;;
60973;SDS011;46846;51.528;5.076;2023-09-19T08:58:49;293.40;;;278.13;;
60973;SDS011;46846;51.528;5.076;2023-09-19T09:01:18;281.30;;;266.77;;
60973;SDS011;46846;51.528;5.076;2023-09-19T09:03:51;280.00;;;265.70;;
60973;SDS011;46846;51.528;5.076;2023-09-19T09:06:17;287.90;;;273.13;;
60973;SDS011;46846;51.528;5.076;2023-09-19T09:08:45;285.55;;;270.95;;
60973;SDS011;46846;51.528;5.076;2023-09-19T09:11:12;285.20;;;270.42;;
60973;SDS011;46846;51.528;5.076;2023-09-19T09:13:38;292.98;;;277.08;;
60973;SDS011;46846;51.528;5.076;2023-09-19T09:16:06;301.25;;;284.65;;
60973;SDS011;46846;51.528;5.076;2023-09-19T09:18:31;293.15;;;277.95;;
60973;SDS011;46846;51.528;5.076;2023-09-19T09:20:56;314.52;;;297.58;;
60973;SDS011;46846;51.528;5.076;2023-09-19T09:23:22;294.10;;;278.63;;
60973;SDS011;46846;51.528;5.076;2023-09-19T09:28:18;292.35;;;277.27;;
60973;SDS011;46846;51.528;5.076;2023-09-19T09:30:45;301.25;;;285.60;;
60973;SDS011;46846;51.528;5.076;2023-09-19T09:33:12;297.52;;;281.95;;
60973;SDS011;46846;51.528;5.076;2023-09-19T09:35:48;298.73;;;283.48;;
60973;SDS011;46846;51.528;5.076;2023-09-19T09:38:17;285.45;;;270.63;;
60973;SDS011;46846;51.528;5.076;2023-09-19T09:40:51;294.13;;;279.02;;
60973;SDS011;46846;51.528;5.076;2023-09-19T09:51:40;306.13;;;289.85;;
60973;SDS011;46846;51.528;5.076;2023-09-19T09:54:22;299.48;;;283.90;;
60973;SDS011;46846;51.528;5.076;2023-09-19T09:57:07;302.15;;;286.33;;
60973;SDS011;46846;51.528;5.076;2023-09-19T10:02:15;297.65;;;282.75;;
60973;SDS011;46846;51.528;5.076;2023-09-19T10:04:54;299.17;;;284.00;;
60973;SDS011;46846;51.528;5.076;2023-09-19T10:07:34;313.17;;;296.75;;
60973;SDS011;46846;51.528;5.076;2023-09-19T10:10:14;305.65;;;290.50;;
60973;SDS011;46846;51.528;5.076;2023-09-19T10:12:54;306.95;;;291.13;;
60973;SDS011;46846;51.528;5.076;2023-09-19T10:15:28;320.70;;;303.88;;
60973;SDS011;46846;51.528;5.076;2023-09-19T10:17:56;310.92;;;294.42;;
60973;SDS011;46846;51.528;5.076;2023-09-19T10:20:26;307.13;;;291.30;;
60973;SDS011;46846;51.528;5.076;2023-09-19T10:23:06;307.65;;;291.52;;
60973;SDS011;46846;51.528;5.076;2023-09-19T10:25:36;305.17;;;287.63;;
60973;SDS011;46846;51.528;5.076;2023-09-19T10:28:03;305.35;;;289.75;;
60973;SDS011;46846;51.528;5.076;2023-09-19T10:30:35;299.02;;;283.35;;
60973;SDS011;46846;51.528;5.076;2023-09-19T10:33:10;301.92;;;286.52;;
60973;SDS011;46846;51.528;5.076;2023-09-19T10:35:37;305.20;;;289.42;;
60973;SDS011;46846;51.528;5.076;2023-09-19T10:38:07;306.77;;;290.88;;
60973;SDS011;46846;51.528;5.076;2023-09-19T10:40:35;299.42;;;283.63;;
60973;SDS011;46846;51.528;5.076;2023-09-19T10:43:05;319.17;;;302.88;;
60973;SDS011;46846;51.528;5.076;2023-09-19T10:45:32;317.67;;;300.92;;
60973;SDS011;46846;51.528;5.076;2023-09-19T10:47:59;331.48;;;314.60;;
60973;SDS011;46846;51.528;5.076;2023-09-19T10:50:26;307.00;;;291.35;;
60973;SDS011;46846;51.528;5.076;2023-09-19T10:53:15;298.33;;;282.90;;
60973;SDS011;46846;51.528;5.076;2023-09-19T10:55:47;308.92;;;293.05;;
60973;SDS011;46846;51.528;5.076;2023-09-19T10:58:24;324.65;;;308.45;;
60973;SDS011;46846;51.528;5.076;2023-09-19T11:00:54;298.55;;;283.27;;
60973;SDS011;46846;51.528;5.076;2023-09-19T11:03:37;314.75;;;298.85;;
60973;SDS011;46846;51.528;5.076;2023-09-19T11:06:12;320.40;;;304.35;;
60973;SDS011;46846;51.528;5.076;2023-09-19T11:14:15;308.15;;;292.55;;
60973;SDS011;46846;51.528;5.076;2023-09-19T11:19:48;302.17;;;286.95;;
60973;SDS011;46846;51.528;5.076;2023-09-19T11:30:43;325.23;;;308.88;;
60973;SDS011;46846;51.528;5.076;2023-09-19T11:46:26;318.73;;;302.90;;
60973;SDS011;46846;51.528;5.076;2023-09-19T11:48:53;326.15;;;309.73;;
60973;SDS011;46846;51.528;5.076;2023-09-19T11:51:22;322.70;;;306.52;;
60973;SDS011;46846;51.528;5.076;2023-09-19T11:53:58;318.48;;;302.13;;
60973;SDS011;46846;51.528;5.076;2023-09-19T11:56:27;333.85;;;317.00;;
60973;SDS011;46846;51.528;5.076;2023-09-19T11:58:53;334.48;;;316.85;;
60973;SDS011;46846;51.528;5.076;2023-09-19T12:01:25;322.95;;;305.20;;
60973;SDS011;46846;51.528;5.076;2023-09-19T12:03:55;334.70;;;317.40;;
60973;SDS011;46846;51.528;5.076;2023-09-19T12:06:23;339.83;;;322.33;;
60973;SDS011;46846;51.528;5.076;2023-09-19T12:08:49;347.42;;;330.05;;
60973;SDS011;46846;51.528;5.076;2023-09-19T12:11:16;339.05;;;321.80;;
60973;SDS011;46846;51.528;5.076;2023-09-19T12:13:46;327.13;;;310.67;;
60973;SDS011;46846;51.528;5.076;2023-09-19T12:18:40;333.83;;;317.33;;
60973;SDS011;46846;51.528;5.076;2023-09-19T12:21:07;347.20;;;329.50;;
60973;SDS011;46846;51.528;5.076;2023-09-19T12:23:37;334.58;;;317.27;;
60973;SDS011;46846;51.528;5.076;2023-09-19T12:26:06;324.92;;;308.67;;
60973;SDS011;46846;51.528;5.076;2023-09-19T12:28:38;330.55;;;314.05;;
60973;SDS011;46846;51.528;5.076;2023-09-19T12:31:07;341.55;;;324.15;;
60973;SDS011;46846;51.528;5.076;2023-09-19T12:33:34;346.08;;;328.25;;
60973;SDS011;46846;51.528;5.076;2023-09-19T12:36:18;333.38;;;316.02;;
60973;SDS011;46846;51.528;5.076;2023-09-19T12:38:47;344.55;;;327.02;;
60973;SDS011;46846;51.528;5.076;2023-09-19T12:41:13;339.60;;;322.42;;
60973;SDS011;46846;51.528;5.076;2023-09-19T12:43:39;328.52;;;312.05;;
60973;SDS011;46846;51.528;5.076;2023-09-19T12:46:06;334.63;;;317.80;;
60973;SDS011;46846;51.528;5.076;2023-09-19T12:48:32;347.65;;;329.38;;
60973;SDS011;46846;51.528;5.076;2023-09-19T12:53:38;350.77;;;333.33;;
60973;SDS011;46846;51.528;5.076;2023-09-19T12:56:07;329.15;;;312.80;;
60973;SDS011;46846;51.528;5.076;2023-09-19T12:58:55;333.50;;;316.77;;
60973;SDS011;46846;51.528;5.076;2023-09-19T13:01:21;338.42;;;321.30;;
60973;SDS011;46846;51.528;5.076;2023-09-19T13:07:00;350.10;;;332.55;;
60973;SDS011;46846;51.528;5.076;2023-09-19T13:09:30;340.98;;;323.55;;
60973;SDS011;46846;51.528;5.076;2023-09-19T13:12:03;329.65;;;313.20;;
60973;SDS011;46846;51.528;5.076;2023-09-19T13:14:30;338.88;;;321.48;;
60973;SDS011;46846;51.528;5.076;2023-09-19T13:17:08;347.92;;;330.45;;
60973;SDS011;46846;51.528;5.076;2023-09-19T13:19:41;353.80;;;335.40;;
60973;SDS011;46846;51.528;5.076;2023-09-19T13:25:23;341.00;;;323.98;;
60973;SDS011;46846;51.528;5.076;2023-09-19T13:27:51;346.25;;;328.45;;
60973;SDS011;46846;51.528;5.076;2023-09-19T13:30:19;342.63;;;325.70;;
60973;SDS011;46846;51.528;5.076;2023-09-19T13:32:46;361.48;;;343.50;;
60973;SDS011;46846;51.528;5.076;2023-09-19T13:35:12;345.08;;;327.13;;
60973;SDS011;46846;51.528;5.076;2023-09-19T13:37:40;367.42;;;348.70;;
60973;SDS011;46846;51.528;5.076;2023-09-19T13:40:08;347.60;;;328.88;;
60973;SDS011;46846;51.528;5.076;2023-09-19T13:42:34;347.00;;;329.25;;
60973;SDS011;46846;51.528;5.076;2023-09-19T13:45:01;344.05;;;327.15;;
60973;SDS011;46846;51.528;5.076;2023-09-19T13:47:30;340.13;;;322.65;;
60973;SDS011;46846;51.528;5.076;2023-09-19T13:49:56;354.13;;;335.85;;
60973;SDS011;46846;51.528;5.076;2023-09-19T13:52:22;341.90;;;324.67;;
60973;SDS011;46846;51.528;5.076;2023-09-19T13:54:48;343.80;;;326.60;;
60973;SDS011;46846;51.528;5.076;2023-09-19T13:57:15;332.92;;;316.35;;
60973;SDS011;46846;51.528;5.076;2023-09-19T13:59:41;343.88;;;326.92;;
60973;SDS011;46846;51.528;5.076;2023-09-19T14:02:07;352.55;;;335.08;;
60973;SDS011;46846;51.528;5.076;2023-09-19T14:04:33;352.85;;;335.27;;
60973;SDS011;46846;51.528;5.076;2023-09-19T14:06:59;351.15;;;333.67;;
60973;SDS011;46846;51.528;5.076;2023-09-19T14:09:26;345.55;;;328.33;;
60973;SDS011;46846;51.528;5.076;2023-09-19T14:11:52;360.33;;;342.23;;
60973;SDS011;46846;51.528;5.076;2023-09-19T14:14:21;360.65;;;342.90;;
60973;SDS011;46846;51.528;5.076;2023-09-19T14:16:49;349.60;;;332.33;;
60973;SDS011;46846;51.528;5.076;2023-09-19T14:19:16;343.67;;;326.60;;
60973;SDS011;46846;51.528;5.076;2023-09-19T14:21:41;337.67;;;320.85;;
60973;SDS011;46846;51.528;5.076;2023-09-19T14:24:07;351.23;;;333.65;;
60973;SDS011;46846;51.528;5.076;2023-09-19T14:26:37;340.23;;;323.40;;
60973;SDS011;46846;51.528;5.076;2023-09-19T14:29:03;350.13;;;332.73;;
60973;SDS011;46846;51.528;5.076;2023-09-19T14:31:29;358.48;;;340.50;;
60973;SDS011;46846;51.528;5.076;2023-09-19T14:33:55;350.80;;;333.23;;
60973;SDS011;46846;51.528;5.076;2023-09-19T14:36:24;360.58;;;342.33;;
60973;SDS011;46846;51.528;5.076;2023-09-19T14:38:52;358.02;;;340.13;;
60973;SDS011;46846;51.528;5.076;2023-09-19T14:41:21;352.95;;;335.50;;
60973;SDS011;46846;51.528;5.076;2023-09-19T14:43:48;345.05;;;328.00;;
60973;SDS011;46846;51.528;5.076;2023-09-19T14:46:14;347.13;;;329.58;;
60973;SDS011;46846;51.528;5.076;2023-09-19T14:48:40;348.08;;;330.77;;
60973;SDS011;46846;51.528;5.076;2023-09-19T14:51:06;334.55;;;317.55;;
60973;SDS011;46846;51.528;5.076;2023-09-19T14:53:37;337.02;;;319.98;;
60973;SDS011;46846;51.528;5.076;2023-09-19T14:56:03;351.67;;;334.25;;
60973;SDS011;46846;51.528;5.076;2023-09-19T14:58:30;344.40;;;327.30;;
60973;SDS011;46846;51.528;5.076;2023-09-19T15:01:02;341.48;;;324.33;;
60973;SDS011;46846;51.528;5.076;2023-09-19T15:03:32;351.38;;;333.92;;
60973;SDS011;46846;51.528;5.076;2023-09-19T15:06:04;341.95;;;324.90;;
60973;SDS011;46846;51.528;5.076;2023-09-19T15:08:31;345.25;;;328.15;;
60973;SDS011;46846;51.528;5.076;2023-09-19T15:10:59;353.13;;;335.13;;
60973;SDS011;46846;51.528;5.076;2023-09-19T15:13:32;358.40;;;339.92;;
60973;SDS011;46846;51.528;5.076;2023-09-19T15:16:16;354.38;;;336.42;;
60973;SDS011;46846;51.528;5.076;2023-09-19T15:18:42;353.25;;;335.77;;
60973;SDS011;46846;51.528;5.076;2023-09-19T15:21:10;369.13;;;350.83;;
60973;SDS011;46846;51.528;5.076;2023-09-19T15:23:38;355.42;;;337.80;;
60973;SDS011;46846;51.528;5.076;2023-09-19T15:26:04;349.25;;;331.58;;
60973;SDS011;46846;51.528;5.076;2023-09-19T15:28:30;361.67;;;343.60;;